sensor_id;sensor_type;location;lat;lon;timestamp;temperature;humidity
3350;DHT22;1688;51.000;13.684;2023-11-19T00:01:32;5.70;99.90
3350;DHT22;1688;51.000;13.684;2023-11-19T00:04:05;5.60;99.90
3350;DHT22;1688;51.000;13.684;2023-11-19T00:06:38;5.50;99.90
3350;DHT22;1688;51.000;13.684;2023-11-19T00:09:11;5.50;99.90
3350;DHT22;1688;51.000;13.684;2023-11-19T00:11:44;5.50;99.90
3350;DHT22;1688;51.000;13.684;2023-11-19T00:14:26;5.50;99.90
3350;DHT22;1688;51.000;13.684;2023-11-19T00:16:59;5.50;99.90
3350;DHT22;1688;51.000;13.684;2023-11-19T00:19:32;5.50;99.90
3350;DHT22;1688;51.000;13.684;2023-11-19T00:22:05;5.50;99.90
3350;DHT22;1688;51.000;13.684;2023-11-19T00:24:38;5.40;99.90
3350;DHT22;1688;51.000;13.684;2023-11-19T00:27:11;5.30;99.90
3350;DHT22;1688;51.000;13.684;2023-11-19T00:29:44;5.40;99.90
3350;DHT22;1688;51.000;13.684;2023-11-19T00:32:17;5.40;99.90
3350;DHT22;1688;51.000;13.684;2023-11-19T00:34:51;5.60;99.90
3350;DHT22;1688;51.000;13.684;2023-11-19T00:37:24;5.60;99.90
3350;DHT22;1688;51.000;13.684;2023-11-19T00:39:57;5.60;99.90
3350;DHT22;1688;51.000;13.684;2023-11-19T00:42:31;5.70;99.90
3350;DHT22;1688;51.000;13.684;2023-11-19T00:45:04;5.80;99.90
3350;DHT22;1688;51.000;13.684;2023-11-19T00:47:41;6.00;99.90
3350;DHT22;1688;51.000;13.684;2023-11-19T00:50:14;6.00;99.90
3350;DHT22;1688;51.000;13.684;2023-11-19T00:52:47;6.00;99.90
3350;DHT22;1688;51.000;13.684;2023-11-19T00:55:19;6.10;99.90
3350;DHT22;1688;51.000;13.684;2023-11-19T00:57:52;6.20;99.90
3350;DHT22;1688;51.000;13.684;2023-11-19T01:00:25;6.20;99.90
3350;DHT22;1688;51.000;13.684;2023-11-19T01:03:00;6.30;99.90
3350;DHT22;1688;51.000;13.684;2023-11-19T01:05:33;6.40;99.90
3350;DHT22;1688;51.000;13.684;2023-11-19T01:08:06;6.40;99.90
3350;DHT22;1688;51.000;13.684;2023-11-19T01:10:39;6.40;99.90
3350;DHT22;1688;51.000;13.684;2023-11-19T01:13:12;6.50;99.90
3350;DHT22;1688;51.000;13.684;2023-11-19T01:15:44;6.50;99.90
3350;DHT22;1688;51.000;13.684;2023-11-19T01:18:17;6.50;99.90
3350;DHT22;1688;51.000;13.684;2023-11-19T01:20:50;6.40;99.90
3350;DHT22;1688;51.000;13.684;2023-11-19T01:23:23;6.50;99.90
3350;DHT22;1688;51.000;13.684;2023-11-19T01:25:56;6.50;99.90
3350;DHT22;1688;51.000;13.684;2023-11-19T01:28:29;6.40;99.90
3350;DHT22;1688;51.000;13.684;2023-11-19T01:31:03;6.50;99.90
3350;DHT22;1688;51.000;13.684;2023-11-19T01:33:37;6.50;99.90
3350;DHT22;1688;51.000;13.684;2023-11-19T01:36:13;6.50;99.90
3350;DHT22;1688;51.000;13.684;2023-11-19T01:38:46;6.50;99.90
3350;DHT22;1688;51.000;13.684;2023-11-19T01:41:19;6.60;99.90
3350;DHT22;1688;51.000;13.684;2023-11-19T01:43:52;6.60;99.90
3350;DHT22;1688;51.000;13.684;2023-11-19T01:46:25;6.60;99.90
3350;DHT22;1688;51.000;13.684;2023-11-19T01:48:59;6.50;99.90
3350;DHT22;1688;51.000;13.684;2023-11-19T01:51:32;6.50;99.90
3350;DHT22;1688;51.000;13.684;2023-11-19T01:54:06;6.40;99.90
3350;DHT22;1688;51.000;13.684;2023-11-19T01:56:40;6.30;99.90
3350;DHT22;1688;51.000;13.684;2023-11-19T01:59:13;6.30;99.90
3350;DHT22;1688;51.000;13.684;2023-11-19T02:01:47;6.30;99.90
3350;DHT22;1688;51.000;13.684;2023-11-19T02:04:21;6.20;99.90
3350;DHT22;1688;51.000;13.684;2023-11-19T02:06:56;6.10;99.90
3350;DHT22;1688;51.000;13.684;2023-11-19T02:09:30;6.10;99.90
3350;DHT22;1688;51.000;13.684;2023-11-19T02:12:04;6.00;99.90
3350;DHT22;1688;51.000;13.684;2023-11-19T02:14:37;6.00;99.90
3350;DHT22;1688;51.000;13.684;2023-11-19T02:17:30;6.00;99.90
3350;DHT22;1688;51.000;13.684;2023-11-19T02:20:10;5.90;99.90
3350;DHT22;1688;51.000;13.684;2023-11-19T02:22:47;5.90;99.90
3350;DHT22;1688;51.000;13.684;2023-11-19T02:25:28;5.90;99.90
3350;DHT22;1688;51.000;13.684;2023-11-19T02:28:03;5.80;99.90
3350;DHT22;1688;51.000;13.684;2023-11-19T02:30:38;5.70;99.90
3350;DHT22;1688;51.000;13.684;2023-11-19T02:33:11;5.70;99.90
3350;DHT22;1688;51.000;13.684;2023-11-19T02:35:45;5.70;99.90
3350;DHT22;1688;51.000;13.684;2023-11-19T02:38:18;5.70;99.90
3350;DHT22;1688;51.000;13.684;2023-11-19T02:40:51;5.80;99.90
3350;DHT22;1688;51.000;13.684;2023-11-19T02:43:24;5.80;99.90
3350;DHT22;1688;51.000;13.684;2023-11-19T02:45:57;5.80;99.90
3350;DHT22;1688;51.000;13.684;2023-11-19T02:52:18;5.90;99.90
3350;DHT22;1688;51.000;13.684;2023-11-19T02:54:52;6.00;99.90
3350;DHT22;1688;51.000;13.684;2023-11-19T02:57:25;6.00;99.90
3350;DHT22;1688;51.000;13.684;2023-11-19T02:59:58;6.00;99.90
3350;DHT22;1688;51.000;13.684;2023-11-19T03:02:31;6.10;99.90
3350;DHT22;1688;51.000;13.684;2023-11-19T03:05:07;6.10;99.90
3350;DHT22;1688;51.000;13.684;2023-11-19T03:07:42;6.10;99.90
3350;DHT22;1688;51.000;13.684;2023-11-19T03:10:16;6.20;99.90
3350;DHT22;1688;51.000;13.684;2023-11-19T03:12:49;6.30;99.90
3350;DHT22;1688;51.000;13.684;2023-11-19T03:15:22;6.20;99.90
3350;DHT22;1688;51.000;13.684;2023-11-19T03:17:55;6.30;99.90
3350;DHT22;1688;51.000;13.684;2023-11-19T03:20:28;6.30;99.90
3350;DHT22;1688;51.000;13.684;2023-11-19T03:23:02;6.40;99.90
3350;DHT22;1688;51.000;13.684;2023-11-19T03:25:35;6.40;99.90
3350;DHT22;1688;51.000;13.684;2023-11-19T03:28:09;6.50;99.90
3350;DHT22;1688;51.000;13.684;2023-11-19T03:30:43;6.50;99.90
3350;DHT22;1688;51.000;13.684;2023-11-19T03:33:16;6.50;99.90
3350;DHT22;1688;51.000;13.684;2023-11-19T03:35:49;6.50;99.90
3350;DHT22;1688;51.000;13.684;2023-11-19T03:38:24;6.50;99.90
3350;DHT22;1688;51.000;13.684;2023-11-19T03:40:57;6.60;99.90
3350;DHT22;1688;51.000;13.684;2023-11-19T03:43:31;6.70;99.90
3350;DHT22;1688;51.000;13.684;2023-11-19T03:46:04;6.70;99.90
3350;DHT22;1688;51.000;13.684;2023-11-19T03:48:38;6.70;99.90
3350;DHT22;1688;51.000;13.684;2023-11-19T03:51:12;6.70;99.90
3350;DHT22;1688;51.000;13.684;2023-11-19T03:53:47;6.70;99.90
3350;DHT22;1688;51.000;13.684;2023-11-19T03:56:20;6.70;99.90
3350;DHT22;1688;51.000;13.684;2023-11-19T03:58:54;6.60;99.90
3350;DHT22;1688;51.000;13.684;2023-11-19T04:01:26;6.70;99.90
3350;DHT22;1688;51.000;13.684;2023-11-19T04:03:59;6.70;99.90
3350;DHT22;1688;51.000;13.684;2023-11-19T04:06:32;6.70;99.90
3350;DHT22;1688;51.000;13.684;2023-11-19T04:09:05;6.70;99.90
3350;DHT22;1688;51.000;13.684;2023-11-19T04:11:38;6.80;99.90
3350;DHT22;1688;51.000;13.684;2023-11-19T04:14:13;6.80;99.90
3350;DHT22;1688;51.000;13.684;2023-11-19T04:16:46;6.80;99.90
3350;DHT22;1688;51.000;13.684;2023-11-19T04:19:19;6.80;99.90
3350;DHT22;1688;51.000;13.684;2023-11-19T04:21:52;6.90;99.90
3350;DHT22;1688;51.000;13.684;2023-11-19T04:24:25;7.00;99.90
3350;DHT22;1688;51.000;13.684;2023-11-19T04:26:58;7.10;99.90
3350;DHT22;1688;51.000;13.684;2023-11-19T04:29:31;7.20;99.90
3350;DHT22;1688;51.000;13.684;2023-11-19T04:32:04;7.30;99.90
3350;DHT22;1688;51.000;13.684;2023-11-19T04:34:38;7.10;99.90
3350;DHT22;1688;51.000;13.684;2023-11-19T04:37:11;6.90;99.90
3350;DHT22;1688;51.000;13.684;2023-11-19T04:39:45;6.80;99.90
3350;DHT22;1688;51.000;13.684;2023-11-19T04:42:24;6.70;99.90
3350;DHT22;1688;51.000;13.684;2023-11-19T04:44:57;6.70;99.90
3350;DHT22;1688;51.000;13.684;2023-11-19T04:47:30;6.60;99.90
3350;DHT22;1688;51.000;13.684;2023-11-19T04:50:03;6.60;99.90
3350;DHT22;1688;51.000;13.684;2023-11-19T04:52:39;6.60;99.90
3350;DHT22;1688;51.000;13.684;2023-11-19T04:55:17;6.70;99.90
3350;DHT22;1688;51.000;13.684;2023-11-19T04:57:50;6.70;99.90
3350;DHT22;1688;51.000;13.684;2023-11-19T05:00:26;6.70;99.90
3350;DHT22;1688;51.000;13.684;2023-11-19T05:02:59;6.80;99.90
3350;DHT22;1688;51.000;13.684;2023-11-19T05:05:32;6.70;99.90
3350;DHT22;1688;51.000;13.684;2023-11-19T05:08:05;6.70;99.90
3350;DHT22;1688;51.000;13.684;2023-11-19T05:10:38;6.60;99.90
3350;DHT22;1688;51.000;13.684;2023-11-19T05:13:10;6.60;99.90
3350;DHT22;1688;51.000;13.684;2023-11-19T05:15:43;6.50;99.90
3350;DHT22;1688;51.000;13.684;2023-11-19T05:18:16;6.40;99.90
3350;DHT22;1688;51.000;13.684;2023-11-19T05:20:49;6.40;99.90
3350;DHT22;1688;51.000;13.684;2023-11-19T05:23:22;6.30;99.90
3350;DHT22;1688;51.000;13.684;2023-11-19T05:25:55;6.30;99.90
3350;DHT22;1688;51.000;13.684;2023-11-19T05:28:28;6.30;99.90
3350;DHT22;1688;51.000;13.684;2023-11-19T05:31:01;6.40;99.90
3350;DHT22;1688;51.000;13.684;2023-11-19T05:33:34;6.40;99.90
3350;DHT22;1688;51.000;13.684;2023-11-19T05:36:07;6.40;99.90
3350;DHT22;1688;51.000;13.684;2023-11-19T05:38:41;6.50;99.90
3350;DHT22;1688;51.000;13.684;2023-11-19T05:41:14;6.50;99.90
3350;DHT22;1688;51.000;13.684;2023-11-19T05:43:47;6.60;99.90
3350;DHT22;1688;51.000;13.684;2023-11-19T05:46:20;6.70;99.90
3350;DHT22;1688;51.000;13.684;2023-11-19T05:48:53;6.70;99.90
3350;DHT22;1688;51.000;13.684;2023-11-19T05:51:26;6.70;99.90
3350;DHT22;1688;51.000;13.684;2023-11-19T05:53:59;6.80;99.90
3350;DHT22;1688;51.000;13.684;2023-11-19T05:56:33;6.70;99.90
3350;DHT22;1688;51.000;13.684;2023-11-19T05:59:05;6.70;99.90
3350;DHT22;1688;51.000;13.684;2023-11-19T06:01:48;6.80;99.90
3350;DHT22;1688;51.000;13.684;2023-11-19T06:04:21;6.80;99.90
3350;DHT22;1688;51.000;13.684;2023-11-19T06:06:54;6.90;99.90
3350;DHT22;1688;51.000;13.684;2023-11-19T06:09:27;7.00;99.90
3350;DHT22;1688;51.000;13.684;2023-11-19T06:12:00;7.00;99.90
3350;DHT22;1688;51.000;13.684;2023-11-19T06:14:34;7.20;99.90
3350;DHT22;1688;51.000;13.684;2023-11-19T06:17:07;7.40;99.90
3350;DHT22;1688;51.000;13.684;2023-11-19T06:19:41;7.40;99.90
3350;DHT22;1688;51.000;13.684;2023-11-19T06:22:14;7.50;99.90
3350;DHT22;1688;51.000;13.684;2023-11-19T06:24:47;7.60;99.90
3350;DHT22;1688;51.000;13.684;2023-11-19T06:27:21;7.60;99.90
3350;DHT22;1688;51.000;13.684;2023-11-19T06:29:54;7.60;99.90
3350;DHT22;1688;51.000;13.684;2023-11-19T06:32:27;7.60;99.90
3350;DHT22;1688;51.000;13.684;2023-11-19T06:35:01;7.70;99.90
3350;DHT22;1688;51.000;13.684;2023-11-19T06:37:34;7.70;99.90
3350;DHT22;1688;51.000;13.684;2023-11-19T06:40:07;7.80;99.90
3350;DHT22;1688;51.000;13.684;2023-11-19T06:42:42;7.80;99.90
3350;DHT22;1688;51.000;13.684;2023-11-19T06:45:14;7.90;99.90
3350;DHT22;1688;51.000;13.684;2023-11-19T06:47:47;7.90;99.90
3350;DHT22;1688;51.000;13.684;2023-11-19T06:50:20;8.00;99.90
3350;DHT22;1688;51.000;13.684;2023-11-19T06:52:53;8.10;99.90
3350;DHT22;1688;51.000;13.684;2023-11-19T06:55:27;8.10;99.90
3350;DHT22;1688;51.000;13.684;2023-11-19T06:58:00;8.20;99.90
3350;DHT22;1688;51.000;13.684;2023-11-19T07:00:35;8.20;99.90
3350;DHT22;1688;51.000;13.684;2023-11-19T07:03:08;8.30;99.90
3350;DHT22;1688;51.000;13.684;2023-11-19T07:05:42;8.40;99.90
3350;DHT22;1688;51.000;13.684;2023-11-19T07:08:16;8.40;99.90
3350;DHT22;1688;51.000;13.684;2023-11-19T07:10:49;8.40;99.90
3350;DHT22;1688;51.000;13.684;2023-11-19T07:13:22;8.50;99.90
3350;DHT22;1688;51.000;13.684;2023-11-19T07:15:56;8.50;99.90
3350;DHT22;1688;51.000;13.684;2023-11-19T07:18:29;8.50;99.90
3350;DHT22;1688;51.000;13.684;2023-11-19T07:21:03;8.60;99.90
3350;DHT22;1688;51.000;13.684;2023-11-19T07:23:36;8.60;99.90
3350;DHT22;1688;51.000;13.684;2023-11-19T07:26:09;8.60;99.90
3350;DHT22;1688;51.000;13.684;2023-11-19T07:28:42;8.60;99.90
3350;DHT22;1688;51.000;13.684;2023-11-19T07:31:17;8.70;99.90
3350;DHT22;1688;51.000;13.684;2023-11-19T07:33:51;8.70;99.90
3350;DHT22;1688;51.000;13.684;2023-11-19T07:36:26;8.80;99.90
3350;DHT22;1688;51.000;13.684;2023-11-19T07:39:03;8.70;99.90
3350;DHT22;1688;51.000;13.684;2023-11-19T07:41:37;8.70;99.90
3350;DHT22;1688;51.000;13.684;2023-11-19T07:44:10;8.70;99.90
3350;DHT22;1688;51.000;13.684;2023-11-19T07:46:44;8.70;99.90
3350;DHT22;1688;51.000;13.684;2023-11-19T07:49:17;8.70;99.90
3350;DHT22;1688;51.000;13.684;2023-11-19T07:51:50;8.70;99.90
3350;DHT22;1688;51.000;13.684;2023-11-19T07:54:23;8.80;99.90
3350;DHT22;1688;51.000;13.684;2023-11-19T07:56:56;8.90;99.90
3350;DHT22;1688;51.000;13.684;2023-11-19T07:59:29;8.90;99.90
3350;DHT22;1688;51.000;13.684;2023-11-19T08:02:02;9.00;99.90
3350;DHT22;1688;51.000;13.684;2023-11-19T08:04:37;9.00;99.90
3350;DHT22;1688;51.000;13.684;2023-11-19T08:07:13;9.00;99.90
3350;DHT22;1688;51.000;13.684;2023-11-19T08:09:46;9.20;99.90
3350;DHT22;1688;51.000;13.684;2023-11-19T08:12:19;9.20;99.90
3350;DHT22;1688;51.000;13.684;2023-11-19T08:14:52;9.30;99.90
3350;DHT22;1688;51.000;13.684;2023-11-19T08:17:25;9.40;99.90
3350;DHT22;1688;51.000;13.684;2023-11-19T08:19:58;9.40;99.90
3350;DHT22;1688;51.000;13.684;2023-11-19T08:22:32;9.50;99.90
3350;DHT22;1688;51.000;13.684;2023-11-19T08:25:06;9.50;99.90
3350;DHT22;1688;51.000;13.684;2023-11-19T08:27:39;9.60;99.90
3350;DHT22;1688;51.000;13.684;2023-11-19T08:30:12;9.60;99.90
3350;DHT22;1688;51.000;13.684;2023-11-19T08:32:45;9.60;99.90
3350;DHT22;1688;51.000;13.684;2023-11-19T08:35:18;9.70;99.90
3350;DHT22;1688;51.000;13.684;2023-11-19T08:37:51;9.80;99.90
3350;DHT22;1688;51.000;13.684;2023-11-19T08:40:24;9.90;99.90
3350;DHT22;1688;51.000;13.684;2023-11-19T08:43:00;10.20;99.90
3350;DHT22;1688;51.000;13.684;2023-11-19T08:45:33;10.50;99.90
3350;DHT22;1688;51.000;13.684;2023-11-19T08:48:06;10.80;99.90
3350;DHT22;1688;51.000;13.684;2023-11-19T08:50:39;10.80;99.90
3350;DHT22;1688;51.000;13.684;2023-11-19T08:53:21;11.00;99.90
3350;DHT22;1688;51.000;13.684;2023-11-19T08:55:54;11.00;99.90
3350;DHT22;1688;51.000;13.684;2023-11-19T08:58:27;10.90;99.90
3350;DHT22;1688;51.000;13.684;2023-11-19T09:01:00;10.80;99.90
3350;DHT22;1688;51.000;13.684;2023-11-19T09:03:33;10.70;99.90
3350;DHT22;1688;51.000;13.684;2023-11-19T09:06:06;10.70;99.90
3350;DHT22;1688;51.000;13.684;2023-11-19T09:08:39;10.60;99.90
3350;DHT22;1688;51.000;13.684;2023-11-19T09:11:12;10.60;99.90
3350;DHT22;1688;51.000;13.684;2023-11-19T09:13:45;10.60;99.90
3350;DHT22;1688;51.000;13.684;2023-11-19T09:16:18;10.70;99.90
3350;DHT22;1688;51.000;13.684;2023-11-19T09:18:51;10.70;99.90
3350;DHT22;1688;51.000;13.684;2023-11-19T09:21:24;10.70;99.90
3350;DHT22;1688;51.000;13.684;2023-11-19T09:23:56;10.70;99.90
3350;DHT22;1688;51.000;13.684;2023-11-19T09:26:30;10.80;99.90
3350;DHT22;1688;51.000;13.684;2023-11-19T09:29:03;10.80;99.90
3350;DHT22;1688;51.000;13.684;2023-11-19T09:31:38;10.80;99.90
3350;DHT22;1688;51.000;13.684;2023-11-19T09:34:10;10.70;99.90
3350;DHT22;1688;51.000;13.684;2023-11-19T09:36:43;10.70;99.90
3350;DHT22;1688;51.000;13.684;2023-11-19T09:39:17;10.70;99.90
3350;DHT22;1688;51.000;13.684;2023-11-19T09:41:51;10.80;99.90
3350;DHT22;1688;51.000;13.684;2023-11-19T09:44:24;10.90;99.90
3350;DHT22;1688;51.000;13.684;2023-11-19T09:47:00;10.90;99.90
3350;DHT22;1688;51.000;13.684;2023-11-19T09:49:35;11.00;99.90
3350;DHT22;1688;51.000;13.684;2023-11-19T09:52:09;11.10;99.90
3350;DHT22;1688;51.000;13.684;2023-11-19T09:54:42;11.10;99.90
3350;DHT22;1688;51.000;13.684;2023-11-19T09:57:16;11.10;99.90
3350;DHT22;1688;51.000;13.684;2023-11-19T09:59:50;11.20;99.90
3350;DHT22;1688;51.000;13.684;2023-11-19T10:02:24;11.30;99.90
3350;DHT22;1688;51.000;13.684;2023-11-19T10:04:58;11.40;99.90
3350;DHT22;1688;51.000;13.684;2023-11-19T10:07:31;11.40;99.90
3350;DHT22;1688;51.000;13.684;2023-11-19T10:10:05;11.50;99.90
3350;DHT22;1688;51.000;13.684;2023-11-19T10:12:39;11.50;99.90
3350;DHT22;1688;51.000;13.684;2023-11-19T10:15:33;11.60;99.90
3350;DHT22;1688;51.000;13.684;2023-11-19T10:18:08;11.60;99.90
3350;DHT22;1688;51.000;13.684;2023-11-19T10:20:41;11.60;99.90
3350;DHT22;1688;51.000;13.684;2023-11-19T10:23:14;11.50;99.90
3350;DHT22;1688;51.000;13.684;2023-11-19T10:25:47;11.50;99.90
3350;DHT22;1688;51.000;13.684;2023-11-19T10:28:20;11.60;99.90
3350;DHT22;1688;51.000;13.684;2023-11-19T10:30:56;11.60;99.90
3350;DHT22;1688;51.000;13.684;2023-11-19T10:33:29;11.50;99.90
3350;DHT22;1688;51.000;13.684;2023-11-19T10:36:03;11.70;99.90
3350;DHT22;1688;51.000;13.684;2023-11-19T10:38:36;11.80;99.90
3350;DHT22;1688;51.000;13.684;2023-11-19T10:41:09;11.80;99.90
3350;DHT22;1688;51.000;13.684;2023-11-19T10:43:44;11.90;99.90
3350;DHT22;1688;51.000;13.684;2023-11-19T10:46:19;12.00;99.90
3350;DHT22;1688;51.000;13.684;2023-11-19T10:48:55;12.10;99.90
3350;DHT22;1688;51.000;13.684;2023-11-19T10:51:29;12.20;99.90
3350;DHT22;1688;51.000;13.684;2023-11-19T10:54:04;12.20;99.90
3350;DHT22;1688;51.000;13.684;2023-11-19T10:56:40;12.20;99.90
3350;DHT22;1688;51.000;13.684;2023-11-19T10:59:16;12.30;99.90
3350;DHT22;1688;51.000;13.684;2023-11-19T11:01:56;12.30;99.90
3350;DHT22;1688;51.000;13.684;2023-11-19T11:04:30;12.40;99.90
3350;DHT22;1688;51.000;13.684;2023-11-19T11:07:06;12.40;99.90
3350;DHT22;1688;51.000;13.684;2023-11-19T11:09:41;12.30;99.90
3350;DHT22;1688;51.000;13.684;2023-11-19T11:12:15;12.20;99.90
3350;DHT22;1688;51.000;13.684;2023-11-19T11:14:50;12.20;99.90
3350;DHT22;1688;51.000;13.684;2023-11-19T11:17:26;12.10;99.90
3350;DHT22;1688;51.000;13.684;2023-11-19T11:20:01;12.10;99.90
3350;DHT22;1688;51.000;13.684;2023-11-19T11:22:46;12.10;99.90
3350;DHT22;1688;51.000;13.684;2023-11-19T11:34:07;12.30;99.90
3350;DHT22;1688;51.000;13.684;2023-11-19T11:39:40;12.30;99.90
3350;DHT22;1688;51.000;13.684;2023-11-19T11:45:10;12.30;99.90
3350;DHT22;1688;51.000;13.684;2023-11-19T11:50:19;12.40;99.90
3350;DHT22;1688;51.000;13.684;2023-11-19T11:55:36;12.40;99.90
3350;DHT22;1688;51.000;13.684;2023-11-19T11:58:09;12.40;99.90
3350;DHT22;1688;51.000;13.684;2023-11-19T12:00:42;12.30;99.90
3350;DHT22;1688;51.000;13.684;2023-11-19T12:03:20;12.40;99.90
3350;DHT22;1688;51.000;13.684;2023-11-19T12:05:54;12.60;99.90
3350;DHT22;1688;51.000;13.684;2023-11-19T12:08:28;12.70;99.90
3350;DHT22;1688;51.000;13.684;2023-11-19T12:11:02;12.80;99.90
3350;DHT22;1688;51.000;13.684;2023-11-19T12:14:02;13.00;99.90
3350;DHT22;1688;51.000;13.684;2023-11-19T12:16:36;13.40;99.90
3350;DHT22;1688;51.000;13.684;2023-11-19T12:19:11;13.70;99.90
3350;DHT22;1688;51.000;13.684;2023-11-19T12:21:45;13.90;99.90
3350;DHT22;1688;51.000;13.684;2023-11-19T12:24:19;14.10;99.90
3350;DHT22;1688;51.000;13.684;2023-11-19T12:26:53;14.20;99.90
3350;DHT22;1688;51.000;13.684;2023-11-19T12:29:42;14.30;99.90
3350;DHT22;1688;51.000;13.684;2023-11-19T12:32:15;14.30;99.90
3350;DHT22;1688;51.000;13.684;2023-11-19T12:34:48;14.30;99.90
3350;DHT22;1688;51.000;13.684;2023-11-19T12:37:21;14.40;99.90
3350;DHT22;1688;51.000;13.684;2023-11-19T12:39:54;14.40;99.90
3350;DHT22;1688;51.000;13.684;2023-11-19T12:42:37;14.40;99.90
3350;DHT22;1688;51.000;13.684;2023-11-19T12:45:11;14.50;99.90
3350;DHT22;1688;51.000;13.684;2023-11-19T12:47:44;14.50;99.90
3350;DHT22;1688;51.000;13.684;2023-11-19T12:50:20;14.50;99.90
3350;DHT22;1688;51.000;13.684;2023-11-19T12:52:56;14.50;99.90
3350;DHT22;1688;51.000;13.684;2023-11-19T12:55:30;14.40;99.90
3350;DHT22;1688;51.000;13.684;2023-11-19T12:58:05;14.50;99.90
3350;DHT22;1688;51.000;13.684;2023-11-19T13:00:38;14.40;99.90
3350;DHT22;1688;51.000;13.684;2023-11-19T13:03:11;14.40;99.90
3350;DHT22;1688;51.000;13.684;2023-11-19T13:05:44;14.40;99.90
3350;DHT22;1688;51.000;13.684;2023-11-19T13:08:16;14.50;99.90
3350;DHT22;1688;51.000;13.684;2023-11-19T13:10:51;14.60;99.90
3350;DHT22;1688;51.000;13.684;2023-11-19T13:13:26;14.70;99.90
3350;DHT22;1688;51.000;13.684;2023-11-19T13:16:03;14.60;99.90
3350;DHT22;1688;51.000;13.684;2023-11-19T13:18:38;14.60;99.90
3350;DHT22;1688;51.000;13.684;2023-11-19T13:21:14;14.70;99.90
3350;DHT22;1688;51.000;13.684;2023-11-19T13:23:47;14.60;99.90
3350;DHT22;1688;51.000;13.684;2023-11-19T13:26:20;14.50;99.90
3350;DHT22;1688;51.000;13.684;2023-11-19T13:28:52;14.30;99.90
3350;DHT22;1688;51.000;13.684;2023-11-19T13:31:25;14.20;99.90
3350;DHT22;1688;51.000;13.684;2023-11-19T13:33:58;14.20;99.90
3350;DHT22;1688;51.000;13.684;2023-11-19T13:36:31;14.20;99.90
3350;DHT22;1688;51.000;13.684;2023-11-19T13:39:04;14.20;99.90
3350;DHT22;1688;51.000;13.684;2023-11-19T13:41:37;14.10;99.90
3350;DHT22;1688;51.000;13.684;2023-11-19T13:44:10;14.00;99.90
3350;DHT22;1688;51.000;13.684;2023-11-19T13:46:44;14.00;99.90
3350;DHT22;1688;51.000;13.684;2023-11-19T13:49:18;13.90;99.90
3350;DHT22;1688;51.000;13.684;2023-11-19T13:51:54;13.90;99.90
3350;DHT22;1688;51.000;13.684;2023-11-19T13:54:27;13.90;99.90
3350;DHT22;1688;51.000;13.684;2023-11-19T13:57:00;13.80;99.90
3350;DHT22;1688;51.000;13.684;2023-11-19T13:59:33;13.80;99.90
3350;DHT22;1688;51.000;13.684;2023-11-19T14:02:06;13.70;99.90
3350;DHT22;1688;51.000;13.684;2023-11-19T14:04:40;13.60;99.90
3350;DHT22;1688;51.000;13.684;2023-11-19T14:07:14;13.50;99.90
3350;DHT22;1688;51.000;13.684;2023-11-19T14:09:47;13.40;99.90
3350;DHT22;1688;51.000;13.684;2023-11-19T14:12:20;13.50;99.90
3350;DHT22;1688;51.000;13.684;2023-11-19T14:14:53;13.40;99.90
3350;DHT22;1688;51.000;13.684;2023-11-19T14:17:27;13.30;99.90
3350;DHT22;1688;51.000;13.684;2023-11-19T14:20:00;13.30;99.90
3350;DHT22;1688;51.000;13.684;2023-11-19T14:22:33;13.20;99.90
3350;DHT22;1688;51.000;13.684;2023-11-19T14:25:06;13.20;99.90
3350;DHT22;1688;51.000;13.684;2023-11-19T14:27:43;13.10;99.90
3350;DHT22;1688;51.000;13.684;2023-11-19T14:30:16;13.10;99.90
3350;DHT22;1688;51.000;13.684;2023-11-19T14:32:49;13.10;99.90
3350;DHT22;1688;51.000;13.684;2023-11-19T14:35:23;13.10;99.90
3350;DHT22;1688;51.000;13.684;2023-11-19T14:37:57;13.10;99.90
3350;DHT22;1688;51.000;13.684;2023-11-19T14:40:30;13.00;99.90
3350;DHT22;1688;51.000;13.684;2023-11-19T14:43:06;13.00;99.90
3350;DHT22;1688;51.000;13.684;2023-11-19T14:45:39;12.90;99.90
3350;DHT22;1688;51.000;13.684;2023-11-19T14:48:21;12.80;99.90
3350;DHT22;1688;51.000;13.684;2023-11-19T14:50:54;12.90;99.90
3350;DHT22;1688;51.000;13.684;2023-11-19T14:53:26;12.80;99.90
3350;DHT22;1688;51.000;13.684;2023-11-19T14:55:59;12.90;99.90
3350;DHT22;1688;51.000;13.684;2023-11-19T14:58:32;12.90;99.90
3350;DHT22;1688;51.000;13.684;2023-11-19T15:01:06;12.90;99.90
3350;DHT22;1688;51.000;13.684;2023-11-19T15:03:40;12.80;99.90
3350;DHT22;1688;51.000;13.684;2023-11-19T15:06:16;12.70;99.90
3350;DHT22;1688;51.000;13.684;2023-11-19T15:08:49;12.60;99.90
3350;DHT22;1688;51.000;13.684;2023-11-19T15:11:21;12.60;99.90
3350;DHT22;1688;51.000;13.684;2023-11-19T15:13:55;12.60;99.90
3350;DHT22;1688;51.000;13.684;2023-11-19T15:16:28;12.50;99.90
3350;DHT22;1688;51.000;13.684;2023-11-19T15:19:06;12.40;99.90
3350;DHT22;1688;51.000;13.684;2023-11-19T15:21:41;12.40;99.90
3350;DHT22;1688;51.000;13.684;2023-11-19T15:24:14;12.40;99.90
3350;DHT22;1688;51.000;13.684;2023-11-19T15:26:47;12.30;99.90
3350;DHT22;1688;51.000;13.684;2023-11-19T15:29:20;12.30;99.90
3350;DHT22;1688;51.000;13.684;2023-11-19T15:31:55;12.30;99.90
3350;DHT22;1688;51.000;13.684;2023-11-19T15:34:28;12.20;99.90
3350;DHT22;1688;51.000;13.684;2023-11-19T15:37:00;12.10;99.90
3350;DHT22;1688;51.000;13.684;2023-11-19T15:39:33;12.10;99.90
3350;DHT22;1688;51.000;13.684;2023-11-19T15:42:08;12.00;99.90
3350;DHT22;1688;51.000;13.684;2023-11-19T15:44:43;12.00;99.90
3350;DHT22;1688;51.000;13.684;2023-11-19T15:47:16;11.90;99.90
3350;DHT22;1688;51.000;13.684;2023-11-19T15:49:49;11.80;99.90
3350;DHT22;1688;51.000;13.684;2023-11-19T15:52:22;11.90;99.90
3350;DHT22;1688;51.000;13.684;2023-11-19T15:54:55;11.90;99.90
3350;DHT22;1688;51.000;13.684;2023-11-19T15:57:28;11.90;99.90
3350;DHT22;1688;51.000;13.684;2023-11-19T16:00:01;11.90;99.90
3350;DHT22;1688;51.000;13.684;2023-11-19T16:02:33;11.90;99.90
3350;DHT22;1688;51.000;13.684;2023-11-19T16:05:07;12.00;99.90
3350;DHT22;1688;51.000;13.684;2023-11-19T16:07:45;11.90;99.90
3350;DHT22;1688;51.000;13.684;2023-11-19T16:10:18;12.00;99.90
3350;DHT22;1688;51.000;13.684;2023-11-19T16:13:00;11.90;99.90
3350;DHT22;1688;51.000;13.684;2023-11-19T16:15:33;11.90;99.90
3350;DHT22;1688;51.000;13.684;2023-11-19T16:18:08;11.90;99.90
3350;DHT22;1688;51.000;13.684;2023-11-19T16:20:46;11.90;99.90
3350;DHT22;1688;51.000;13.684;2023-11-19T16:23:19;11.90;99.90
3350;DHT22;1688;51.000;13.684;2023-11-19T16:25:52;11.90;99.90
3350;DHT22;1688;51.000;13.684;2023-11-19T16:28:25;11.90;99.90
3350;DHT22;1688;51.000;13.684;2023-11-19T16:30:58;11.90;99.90
3350;DHT22;1688;51.000;13.684;2023-11-19T16:33:31;11.80;99.90
3350;DHT22;1688;51.000;13.684;2023-11-19T16:36:07;11.80;99.90
3350;DHT22;1688;51.000;13.684;2023-11-19T16:38:41;11.80;99.90
3350;DHT22;1688;51.000;13.684;2023-11-19T16:41:18;11.70;99.90
3350;DHT22;1688;51.000;13.684;2023-11-19T16:44:11;11.70;99.90
3350;DHT22;1688;51.000;13.684;2023-11-19T16:46:44;11.70;99.90
3350;DHT22;1688;51.000;13.684;2023-11-19T16:49:17;11.70;99.90
3350;DHT22;1688;51.000;13.684;2023-11-19T16:51:50;11.60;99.90
3350;DHT22;1688;51.000;13.684;2023-11-19T16:54:23;11.60;99.90
3350;DHT22;1688;51.000;13.684;2023-11-19T16:56:56;11.60;99.90
3350;DHT22;1688;51.000;13.684;2023-11-19T16:59:29;11.60;99.90
3350;DHT22;1688;51.000;13.684;2023-11-19T17:02:02;11.60;99.90